Ajo, AZ

7:22 PM MST on July 29, 2014 (GMT -0700)
KAZAJO2 Elev 1739 ft | 32.38 °N, 112.86 °W | Change Station

Current weather conditions updated 2 minutes ago

Partly Cloudy
Partly Cloudy
100.4 °F
Feels Like 99 °F
N
3.0
Wind Variable Wind from West
Gusts 3.0 mph

Tomorrow is forecast to be nearly the same temperature as today.

Today
High -- | Low -- °F
--% Chance of Precip.
Yesterday
High -- | Low -- °F
Precip. -- in
5:44 AM 7:31 PM
Waxing Crescent, 9% visible
Pressure 29.74 in
Visibility 10.0 miles
Clouds Few 25000 ft
Heat Index 99 °F
Dew Point 56 °F
Humidity 23%
Rainfall 0.00 in
Snow Depth Not available.
UV 0 out of 12
Pollen 4.10 out of 12
Air Quality Not available.
Flu Activity Not available.
METAR KGXF 300155Z 27006KT 10SM FEW250 41/10 A2981 RMK SLP071

More Conditions Fewer Conditions

Pressure 29.74 in
Visibility 10.0 miles
Clouds Few 25000 ft
Heat Index 99 °F
Dew Point 56 °F
Humidity 23%
Rainfall 0.00 in
Snow Depth Not available.
UV 0 out of 12
Pollen 4.10 out of 12
Air Quality Not available.
Flu Activity Not available.
METAR KGXF 300155Z 27006KT 10SM FEW250 41/10 A2981 RMK SLP071

More Conditions Fewer Conditions

10-Day Weather Forecast

Almanac

Astronomy

Jul. 29, 2014 Rise Set
Actual Time 5:44 AM MST 7:31 PM MST
Civil Twilight 5:17 AM MST 7:58 PM MST
Nautical Twilight 4:44 AM MST 8:30 PM MST
Astronomical Twilight 4:10 AM MST 9:05 PM MST
Moon 8:12 AM MST (7/29) 8:59 PM MST (7/29)
Length of Visible Light 14h 41m
Length of Day
13h 47m
Tomorrow will be 1m 25s shorter.
Waxing Crescent, 9% of the Moon is Illuminated
Today
Waxing Crescent
Aug 3
First Quarter
Aug 10
Full
Aug 17
Last Quarter
Aug 25
New

Today's Extremes

State Highs State Lows

Community

WunderPhotos

Upload Photos

1,738,964 photos uploaded!

Nearby

Snow Depth

Station Depth Elevation
Beaver Head 0 in 7990 ft

Earthquake Activity

City Distance Mag. Time & Date
No recent earthquake activity has been reported nearby.
Minimum magnitude displayed is 2.5.

Coastal Water Temperatures

Place Temperature
No Stations Reporting

Nearby Weather Stations

Station Location Temp. Heat Index Dew Point Humidity Wind Precip. Elev Updated Type
Ajo, AZ 100.4 °F 99 °F 56 °F 23% West  at  3.0 mph 0.00 in / hr 1739 ft 7:20 PM MST Normal

Show More Stations Show Fewer Stations